Farmington ASC Data

Date Time Air Temperature Relative Humidity Dewpoint Windchill Heat Index Wind Speed Wind Dir. Rain Solar Radiation Soil Temperature
2m 2m 3m 3m 10cm
US/Mountain F % F F F MPH deg in MJ/m^2 F
max avg avg
2021-02-23 00:05:00 24.6 78.6 18.9 24.6 24.6 2.2 4.9 3.5 85.7 200.7 0.00 0.0000000 36.8
2021-02-23 00:10:00 25.3 74.4 18.3 21.5 25.3 3.1 3.3 2.6 68.8 75.5 0.00 0.0000000 36.7
2021-02-23 00:15:00 24.8 75.1 18.1 21.0 24.8 3.1 3.7 3.0 71.4 66.5 0.00 0.0000000 36.7
2021-02-23 00:20:00 24.9 75.5 18.3 24.9 24.9 2.6 3.1 2.5 69.4 76.4 0.00 0.0000000 36.6
2021-02-23 00:25:00 24.9 76.7 18.6 24.9 24.9 2.4 3.5 2.4 70.3 67.1 0.00 0.0000000 36.6
2021-02-23 00:30:00 25.8 74.3 18.7 25.8 25.8 2.4 2.8 2.3 60.9 69.8 0.00 0.0000000 36.5
2021-02-23 00:35:00 26.4 73.2 19.0 26.4 26.4 1.9 2.6 2.2 75.2 65.1 0.00 0.0000000 36.5
2021-02-23 00:40:00 25.5 75.1 18.7 25.5 25.5 1.3 3.3 2.0 73.6 72.0 0.00 0.0000000 36.4
2021-02-23 00:45:00 24.5 78.5 18.8 24.5 24.5 2.2 2.2 1.3 113.4 88.7 0.00 0.0000000 36.4
2021-02-23 00:50:00 24.5 81.6 19.7 24.5 24.5 2.2 2.6 2.0 67.6 80.0 0.00 0.0000000 36.3
2021-02-23 00:55:00 24.5 82.0 19.8 20.4 24.5 3.3 3.3 2.6 97.3 75.5 0.00 0.0000000 36.3
2021-02-23 01:00:00 25.1 80.6 20.0 25.1 25.1 2.4 3.1 2.4 80.2 78.6 0.00 0.0000000 36.2
2021-02-23 01:05:00 25.6 79.1 20.0 25.6 25.6 2.4 3.3 2.5 70.3 72.0 0.00 0.0000000 36.2
2021-02-23 01:10:00 25.4 78.1 19.5 25.4 25.4 2.2 3.1 2.4 66.9 73.3 0.00 0.0000000 36.2
2021-02-23 01:15:00 25.4 78.6 19.7 25.4 25.4 2.2 2.8 2.4 57.7 69.4 0.00 0.0000000 36.1
2021-02-23 01:20:00 25.9 77.4 19.8 25.9 25.9 2.4 3.8 3.1 59.9 65.7 0.00 0.0000000 36.1
2021-02-23 01:25:00 26.1 77.6 20.0 26.1 26.1 2.8 3.3 2.6 65.6 74.3 0.00 0.0000000 36.0
2021-02-23 01:30:00 26.5 76.3 20.0 26.5 26.5 3.0 3.5 2.5 100.8 86.1 0.00 0.0000000 36.0
2021-02-23 01:35:00 26.4 75.3 19.6 26.4 26.4 2.1 3.5 2.3 68.8 94.1 0.00 0.0000000 36.0
2021-02-23 01:40:00 26.3 75.5 19.6 26.3 26.3 1.5 2.8 2.0 63.5 59.3 0.00 0.0000000 35.9
2021-02-23 01:45:00 26.3 74.8 19.4 26.3 26.3 2.2 2.4 1.8 126.4 79.2 0.00 0.0000000 35.9
2021-02-23 01:50:00 26.9 73.8 19.7 26.9 26.9 1.9 3.0 2.3 76.3 96.0 0.00 0.0000000 35.8
2021-02-23 01:55:00 26.9 74.4 19.8 26.9 26.9 2.8 2.8 2.4 70.2 87.3 0.00 0.0000000 35.8
2021-02-23 02:00:00 26.9 74.7 20.0 26.9 26.9 1.5 2.6 2.3 81.2 95.3 0.00 0.0000000 35.8
2021-02-23 02:05:00 26.9 76.3 20.5 26.9 26.9 2.1 2.2 1.7 89.1 88.9 0.00 0.0000000 35.7
2021-02-23 02:10:00 27.6 75.5 20.9 27.6 27.6 2.4 2.8 2.2 85.1 98.5 0.00 0.0000000 35.7
2021-02-23 02:15:00 27.8 75.4 21.0 27.8 27.8 1.9 3.0 2.0 80.6 82.5 0.00 0.0000000 35.7
2021-02-23 02:20:00 27.8 75.5 21.1 27.8 27.8 1.9 2.2 1.9 65.4 73.0 0.00 0.0000000 35.6
2021-02-23 02:25:00 27.6 75.5 20.9 27.6 27.6 2.2 2.2 1.8 83.9 66.1 0.00 0.0000000 35.6
2021-02-23 02:30:00 27.6 75.4 20.9 27.6 27.6 2.4 2.6 2.0 64.6 80.6 0.00 0.0000000 35.6
2021-02-23 02:35:00 27.4 76.2 20.9 27.4 27.4 1.9 2.6 2.0 67.1 71.1 0.00 0.0000000 35.5
2021-02-23 02:40:00 26.9 76.4 20.5 26.9 26.9 1.7 2.1 1.8 80.7 68.4 0.00 0.0000000 35.5
2021-02-23 02:45:00 26.8 77.1 20.5 26.8 26.8 1.7 2.2 1.8 84.2 98.4 0.00 0.0000000 35.5
2021-02-23 02:50:00 26.6 78.6 20.9 26.6 26.6 2.2 3.0 1.9 64.2 98.6 0.00 0.0000000 35.5
2021-02-23 02:55:00 26.3 78.8 20.6 26.3 26.3 2.2 2.6 2.0 77.9 81.1 0.00 0.0000000 35.4
2021-02-23 03:00:00 26.5 79.5 21.0 26.5 26.5 2.2 2.6 2.0 77.4 77.1 0.00 0.0000000 35.4
2021-02-23 03:05:00 26.4 79.1 20.8 26.4 26.4 2.2 3.1 2.4 80.5 89.6 0.00 0.0000000 35.4
2021-02-23 03:10:00 26.5 78.7 20.8 26.5 26.5 1.9 2.4 1.9 86.7 82.5 0.00 0.0000000 35.3
2021-02-23 03:15:00 26.5 79.7 21.0 26.5 26.5 2.2 2.2 1.9 82.1 90.8 0.00 0.0000000 35.3
2021-02-23 03:20:00 26.0 80.6 20.9 26.0 26.0 1.3 2.2 1.7 94.4 88.0 0.00 0.0000000 35.3
2021-02-23 03:25:00 23.9 79.5 18.5 19.4 23.9 3.5 4.4 2.5 238.2 257.5 0.00 0.0000000 35.2
2021-02-23 03:30:00 24.1 82.8 19.7 24.1 24.1 3.0 4.0 3.3 262.8 229.2 0.00 0.0000000 35.2
2021-02-23 03:35:00 23.1 86.7 19.7 23.1 23.1 2.4 6.9 4.3 171.3 188.4 0.00 0.0000000 35.2
2021-02-23 03:40:00 22.3 87.6 19.2 16.6 22.3 4.2 4.4 3.5 148.8 176.0 0.00 0.0000000 35.2
2021-02-23 03:45:00 21.8 89.2 19.1 16.5 21.8 3.8 5.5 4.3 142.6 162.5 0.00 0.0000000 35.1
2021-02-23 03:50:00 21.4 90.6 19.1 16.8 21.4 3.3 4.6 3.4 139.7 137.1 0.00 0.0000000 35.1
2021-02-23 03:55:00 21.8 91.1 19.6 21.8 21.8 2.1 3.7 2.3 59.9 80.0 0.00 0.0000000 35.1
2021-02-23 04:00:00 22.2 91.0 19.9 22.2 22.2 2.8 2.8 2.1 96.8 67.2 0.00 0.0000000 35.0
2021-02-23 04:05:00 22.3 89.9 19.8 22.3 22.3 2.8 3.3 2.5 64.0 66.5 0.00 0.0000000 35.0
2021-02-23 04:10:00 22.5 88.4 19.6 22.5 22.5 2.1 3.3 2.5 75.7 70.4 0.00 0.0000000 35.0
2021-02-23 04:15:00 22.5 89.4 19.9 22.5 22.5 2.4 3.0 2.1 41.8 65.1 0.00 0.0000000 35.0
2021-02-23 04:20:00 23.0 89.3 20.3 23.0 23.0 2.2 3.0 2.2 67.9 61.3 0.00 0.0000000 34.9
2021-02-23 04:25:00 23.3 87.7 20.2 23.3 23.3 2.1 2.4 2.1 77.2 70.5 0.00 0.0000000 34.9
2021-02-23 04:30:00 23.6 87.3 20.4 23.6 23.6 1.2 2.8 2.1 81.6 70.5 0.00 0.0000000 34.9
2021-02-23 04:35:00 23.6 87.3 20.4 23.6 23.6 1.9 1.9 1.5 62.6 76.1 0.00 0.0000000 34.9
2021-02-23 04:40:00 23.6 87.9 20.6 23.6 23.6 2.1 2.8 2.4 80.3 68.1 0.00 0.0000000 34.8
2021-02-23 04:45:00 23.8 87.3 20.6 23.8 23.8 2.1 2.8 2.3 60.3 66.5 0.00 0.0000000 34.8
2021-02-23 04:50:00 24.3 87.3 21.1 24.3 24.3 2.4 3.0 2.5 70.3 60.3 0.00 0.0000000 34.8
2021-02-23 04:55:00 24.6 85.0 20.8 24.6 24.6 2.4 3.3 2.8 58.9 65.0 0.00 0.0000000 34.8
2021-02-23 05:00:00 24.5 83.6 20.3 24.5 24.5 2.2 3.0 2.6 69.7 62.8 0.00 0.0000000 34.8
2021-02-23 05:05:00 24.5 83.9 20.4 24.5 24.5 2.6 2.6 2.2 49.5 65.8 0.00 0.0000000 34.7
2021-02-23 05:10:00 24.8 85.0 20.9 24.8 24.8 2.1 3.1 2.5 63.5 57.4 0.00 0.0000000 34.7
2021-02-23 05:15:00 24.7 84.1 20.6 24.7 24.7 1.7 3.5 2.3 67.5 58.3 0.00 0.0000000 34.7
2021-02-23 05:20:00 25.0 83.8 20.8 25.0 25.0 2.1 3.7 2.3 54.2 55.6 0.00 0.0000000 34.7
2021-02-23 05:25:00 24.9 83.0 20.5 24.9 24.9 1.3 3.5 2.0 54.3 58.8 0.00 0.0000000 34.7
2021-02-23 05:30:00 25.5 83.0 21.0 20.9 25.5 3.7 3.7 2.4 51.0 48.8 0.00 0.0000000 34.6
2021-02-23 05:35:00 25.8 81.2 20.8 25.8 25.8 1.7 3.0 2.0 42.9 55.5 0.00 0.0000000 34.6
2021-02-23 05:40:00 25.9 80.9 20.8 25.9 25.9 3.0 4.0 2.8 25.4 51.4 0.00 0.0000000 34.6
2021-02-23 05:45:00 26.0 79.7 20.6 26.0 26.0 1.7 4.6 3.0 82.7 51.3 0.00 0.0000000 34.6
2021-02-23 05:50:00 25.8 79.5 20.4 25.8 25.8 1.2 3.0 2.2 36.6 55.8 0.00 0.0000000 34.6
2021-02-23 05:55:00 25.7 80.2 20.5 25.7 25.7 2.8 3.7 2.6 333.8 59.9 0.00 0.0000000 34.5
2021-02-23 06:00:00 25.8 80.0 20.5 25.8 25.8 2.8 4.0 2.6 82.8 50.5 0.00 0.0000000 34.5
2021-02-23 06:05:00 26.0 80.2 20.8 26.0 26.0 2.4 4.7 2.7 17.9 57.8 0.00 0.0000000 34.5
2021-02-23 06:10:00 25.8 80.5 20.6 25.8 25.8 1.9 3.5 2.6 50.6 58.9 0.00 0.0000000 34.5
2021-02-23 06:15:00 25.8 80.6 20.7 20.1 25.8 4.7 4.7 3.2 40.6 64.3 0.00 0.0000000 34.5
2021-02-23 06:20:00 25.8 80.0 20.5 25.8 25.8 3.0 4.4 2.7 71.9 72.4 0.00 0.0000000 34.5
2021-02-23 06:25:00 25.8 80.6 20.6 25.8 25.8 1.7 4.7 2.4 297.1 80.5 0.00 0.0000000 34.4
2021-02-23 06:30:00 25.8 81.2 20.9 20.7 25.8 4.2 4.9 2.8 108.0 70.2 0.00 0.0000000 34.4
2021-02-23 06:35:00 26.1 80.6 20.9 21.6 26.1 3.7 4.4 2.8 15.3 78.4 0.00 0.0010000 34.4
2021-02-23 06:40:00 26.0 80.4 20.8 26.0 26.0 3.0 5.8 2.9 121.2 56.6 0.00 0.0010000 34.4
2021-02-23 06:45:00 26.3 79.5 20.9 26.3 26.3 2.4 5.3 3.1 37.0 79.2 0.00 0.0020000 34.4
2021-02-23 06:50:00 26.3 79.1 20.7 26.3 26.3 1.9 3.7 2.6 96.0 84.6 0.00 0.0040000 34.4
2021-02-23 06:55:00 26.4 79.1 20.8 22.0 26.4 3.7 4.4 2.6 96.9 84.9 0.00 0.0060000 34.4
2021-02-23 07:00:00 26.2 79.2 20.6 21.3 26.2 4.0 4.7 2.6 75.1 92.4 0.00 0.0080000 34.4
2021-02-23 07:05:00 26.3 79.5 20.8 26.3 26.3 2.4 4.4 2.7 133.6 98.0 0.00 0.0100000 34.3
2021-02-23 07:10:00 26.0 79.7 20.6 21.6 26.0 3.7 3.7 2.4 202.1 124.8 0.00 0.0160000 34.3
2021-02-23 07:15:00 26.1 80.5 20.9 18.8 26.1 6.3 8.1 6.3 177.1 191.0 0.00 0.0310000 34.3
2021-02-23 07:20:00 26.4 80.0 21.1 19.5 26.4 6.0 6.5 5.2 159.5 172.9 0.00 0.0320000 34.3
2021-02-23 07:25:00 27.0 78.5 21.2 27.0 27.0 2.4 6.3 4.3 81.4 135.1 0.00 0.0600000 34.3
2021-02-23 07:30:00 27.6 76.5 21.2 27.6 27.6 1.0 2.4 0.8 18.8 78.4 0.00 0.0530000 34.3
2021-02-23 07:35:00 28.8 74.4 21.7 28.8 28.8 1.3 2.2 1.5 161.7 91.2 0.00 0.1380000 34.3
2021-02-23 07:40:00 30.1 71.9 22.1 26.9 30.1 3.1 3.3 2.4 119.6 101.5 0.00 0.1620000 34.3
2021-02-23 07:45:00 31.1 68.7 22.0 31.1 31.1 3.0 4.4 2.9 105.6 97.5 0.00 0.1750000 34.2
2021-02-23 07:50:00 32.2 65.9 22.1 29.3 32.2 3.1 4.4 2.7 98.3 91.6 0.00 0.1840000 34.2
2021-02-23 07:55:00 33.4 63.3 22.2 33.4 33.4 2.4 4.9 2.9 86.3 77.7 0.00 0.1910000 34.2
2021-02-23 08:00:00 34.6 61.0 22.5 34.6 34.6 3.0 3.8 2.8 89.8 98.4 0.00 0.2010000 34.2
2021-02-23 08:05:00 35.4 59.1 22.6 35.4 35.4 2.4 4.6 2.8 87.0 91.1 0.00 0.2170000 34.2
2021-02-23 08:10:00 36.5 57.0 22.7 36.5 36.5 2.8 3.8 2.6 82.7 81.9 0.00 0.2320000 34.2
2021-02-23 08:15:00 36.8 55.8 22.5 36.8 36.8 2.8 5.1 3.3 93.5 83.7 0.00 0.2480000 34.2
2021-02-23 08:20:00 37.6 54.0 22.5 34.2 37.6 4.4 5.3 2.8 92.6 90.4 0.00 0.2640000 34.2
2021-02-23 08:25:00 37.6 54.2 22.5 35.0 37.6 3.5 4.9 3.5 96.3 79.3 0.00 0.2800000 34.2
2021-02-23 08:30:00 38.3 53.0 22.6 38.3 38.3 3.0 4.7 2.9 90.0 69.4 0.00 0.2960000 34.2
2021-02-23 08:35:00 38.6 51.8 22.4 36.7 38.6 3.1 4.9 3.4 75.9 54.2 0.00 0.3120000 34.2
2021-02-23 08:40:00 38.7 51.0 22.1 36.5 38.7 3.3 5.6 3.5 98.1 57.5 0.00 0.3270000 34.1
2021-02-23 08:45:00 39.2 52.6 23.3 37.3 39.2 3.1 5.1 3.2 132.0 78.0 0.00 0.3420000 34.1
2021-02-23 08:50:00 39.6 49.7 22.4 39.6 39.6 2.6 4.4 3.0 45.5 73.8 0.00 0.3590000 34.1
2021-02-23 08:55:00 39.6 50.4 22.7 36.3 39.6 4.6 4.6 3.3 4.9 48.9 0.00 0.3740000 34.1
2021-02-23 09:00:00 40.0 51.3 23.4 37.4 40.0 3.8 4.7 2.9 76.7 71.1 0.00 0.3870000 34.1
2021-02-23 09:05:00 40.3 52.3 24.2 40.3 40.3 2.2 5.5 3.5 32.6 62.3 0.00 0.4050000 34.1
2021-02-23 09:10:00 40.4 50.7 23.5 40.4 40.4 2.2 5.3 3.5 2.7 42.9 0.00 0.4170000 34.1
2021-02-23 09:15:00 41.8 46.2 22.6 41.8 41.8 2.4 4.0 2.8 35.7 83.1 0.00 0.4330000 34.2
2021-02-23 09:20:00 42.5 44.1 22.2 40.4 42.5 3.8 4.0 2.8 61.2 55.8 0.00 0.4450000 34.2
2021-02-23 09:25:00 42.3 45.4 22.7 42.3 42.3 2.4 4.9 3.4 51.4 47.7 0.00 0.4590000 34.2
2021-02-23 09:30:00 41.5 48.4 23.4 39.1 41.5 3.8 5.3 3.3 36.1 34.3 0.00 0.4740000 34.2
2021-02-23 09:35:00 41.1 50.4 24.0 39.2 41.1 3.3 5.1 3.8 50.8 26.4 0.00 0.4860000 34.3
2021-02-23 09:40:00 41.5 50.2 24.3 39.3 41.5 3.7 4.4 3.2 65.2 21.4 0.00 0.4970000 34.3
2021-02-23 09:45:00 42.0 48.8 24.1 40.4 42.0 3.1 6.2 3.6 52.1 33.4 0.00 0.5100000 34.4
2021-02-23 09:50:00 41.7 49.1 24.0 40.1 41.7 3.1 5.3 4.1 37.9 29.6 0.00 0.5230000 34.4
2021-02-23 09:55:00 41.5 47.9 23.2 37.9 41.5 5.5 6.2 4.3 26.0 33.3 0.00 0.5340000 34.5
2021-02-23 10:00:00 41.9 47.9 23.5 39.0 41.9 4.6 7.6 4.5 11.2 30.2 0.00 0.5450000 34.6
2021-02-23 10:05:00 41.9 48.1 23.6 39.4 41.9 4.0 6.3 4.8 37.6 18.6 0.00 0.5570000 34.7
2021-02-23 10:10:00 42.7 45.1 22.8 39.8 42.7 4.7 6.3 4.0 17.7 36.0 0.00 0.5670000 34.8
2021-02-23 10:15:00 43.1 44.4 22.9 40.5 43.1 4.4 5.6 4.0 70.2 46.9 0.00 0.5770000 34.9
2021-02-23 10:20:00 43.5 44.9 23.4 40.7 43.5 4.7 4.7 3.7 80.9 42.0 0.00 0.5870000 35.0
2021-02-23 10:25:00 43.6 45.0 23.6 42.1 43.6 3.3 6.0 4.5 345.5 24.1 0.00 0.5970000 35.2
2021-02-23 10:30:00 43.9 44.5 23.7 40.6 43.9 5.6 6.3 4.5 346.3 27.4 0.00 0.6070000 35.3
2021-02-23 10:35:00 43.9 44.1 23.5 41.8 43.9 4.0 6.5 4.3 80.9 32.1 0.00 0.6160000 35.4
2021-02-23 10:40:00 44.2 43.9 23.6 44.2 44.2 2.8 7.6 4.7 114.4 29.1 0.00 0.6250000 35.6
2021-02-23 10:45:00 44.9 41.4 22.8 43.1 44.9 3.8 6.2 4.2 15.0 36.9 0.00 0.6350000 35.7
2021-02-23 10:50:00 45.4 40.9 23.0 43.4 45.4 4.2 5.8 4.0 35.3 29.5 0.00 0.6430000 35.9
2021-02-23 10:55:00 45.7 41.7 23.7 43.6 45.7 4.4 6.5 4.5 59.7 22.3 0.00 0.6500000 36.0
2021-02-23 11:00:00 45.7 41.1 23.4 43.8 45.7 4.2 7.8 4.8 28.2 13.5 0.00 0.6560000 36.2
2021-02-23 11:05:00 46.9 39.0 23.2 44.8 46.9 4.6 5.8 4.3 41.7 20.9 0.00 0.6620000 36.3
2021-02-23 11:10:00 47.0 38.7 23.2 43.9 47.0 6.3 7.4 4.7 342.4 19.9 0.00 0.6700000 36.5
2021-02-23 11:15:00 46.7 38.3 22.6 45.5 46.7 3.5 8.1 5.9 344.6 0.2 0.00 0.6740000 36.7
2021-02-23 11:20:00 47.2 37.4 22.4 44.6 47.2 5.5 6.2 4.4 53.0 356.0 0.00 0.6810000 36.8
2021-02-23 11:25:00 47.9 36.7 22.7 47.9 47.9 2.4 6.7 4.4 21.1 15.4 0.00 0.6860000 37.0
2021-02-23 11:30:00 48.4 34.9 21.9 45.9 48.4 5.8 6.3 4.5 14.1 16.6 0.00 0.6920000 37.1
2021-02-23 11:35:00 48.3 33.1 20.6 44.2 48.3 9.2 9.2 4.6 344.7 0.7 0.00 0.6970000 37.3
2021-02-23 11:40:00 47.7 32.8 19.8 46.5 47.7 3.7 8.1 4.8 324.4 319.8 0.00 0.7010000 37.5
2021-02-23 11:45:00 48.1 31.7 19.3 46.5 48.1 4.2 6.2 4.1 14.7 2.7 0.00 0.7030000 37.7
2021-02-23 11:50:00 47.4 32.4 19.3 46.4 47.4 3.3 8.1 4.5 305.9 325.5 0.00 0.7070000 37.8
2021-02-23 11:55:00 48.1 31.3 19.0 45.8 48.1 5.3 5.8 4.1 4.1 339.7 0.00 0.7110000 38.0
2021-02-23 12:00:00 48.7 30.2 18.8 47.8 48.7 3.5 6.9 3.9 73.2 45.4 0.00 0.7140000 38.1
2021-02-23 12:05:00 47.6 29.6 17.3 45.3 47.6 5.1 8.7 5.9 342.3 346.9 0.00 0.7140000 38.3
2021-02-23 12:10:00 48.4 30.6 18.9 45.8 48.4 6.0 6.3 4.1 335.8 326.4 0.00 0.7160000 38.5
2021-02-23 12:15:00 48.8 29.6 18.3 46.9 48.8 4.7 6.7 4.2 324.0 320.0 0.00 0.7170000 38.6
2021-02-23 12:20:00 48.6 29.6 18.2 47.6 48.6 3.5 5.1 3.5 0.1 343.1 0.00 0.7180000 38.8
2021-02-23 12:25:00 48.8 30.6 19.1 45.5 48.8 7.4 8.3 4.9 324.3 295.2 0.00 0.7180000 38.9
2021-02-23 12:30:00 49.6 29.0 18.6 47.6 49.6 5.1 6.7 3.6 334.8 295.3 0.00 0.7190000 39.1
2021-02-23 12:35:00 49.4 28.9 18.4 47.0 49.4 6.0 6.7 4.1 239.1 267.4 0.00 0.7190000 39.3
2021-02-23 12:40:00 50.1 28.8 18.8 50.1 50.1 5.1 7.2 5.3 192.0 232.4 0.00 0.7190000 39.4
2021-02-23 12:45:00 49.9 28.9 18.9 48.7 49.9 4.2 7.6 5.1 227.6 213.6 0.00 0.7160000 39.6
2021-02-23 12:50:00 49.8 28.7 18.6 47.4 49.8 6.0 6.9 5.4 229.4 256.3 0.00 0.7130000 39.7
2021-02-23 12:55:00 50.4 28.3 18.8 50.4 50.4 4.6 8.0 5.2 208.6 261.2 0.00 0.7110000 39.9
2021-02-23 13:00:00 51.0 27.4 18.4 51.0 51.0 5.1 7.4 4.0 216.5 227.2 0.00 0.7090000 40.0
2021-02-23 13:05:00 50.4 28.3 18.7 50.4 50.4 3.7 9.4 6.2 223.2 221.7 0.00 0.7070000 40.2
2021-02-23 13:10:00 50.9 27.1 18.1 50.9 50.9 3.8 9.4 4.5 238.7 245.0 0.00 0.7030000 40.4
2021-02-23 13:15:00 51.3 27.0 18.4 51.3 51.3 5.1 8.7 5.3 256.5 286.5 0.00 0.7000000 40.5
2021-02-23 13:20:00 51.7 26.0 17.9 51.7 51.7 5.1 7.2 5.3 280.1 273.5 0.00 0.6970000 40.6
2021-02-23 13:25:00 52.4 25.5 18.0 52.4 52.4 6.0 6.7 4.6 294.6 276.5 0.00 0.6910000 40.8
2021-02-23 13:30:00 52.4 25.1 17.7 52.4 52.4 4.0 8.0 5.0 291.2 284.8 0.00 0.6860000 40.9
2021-02-23 13:35:00 52.1 25.9 18.1 52.1 52.1 7.2 9.7 7.6 264.4 281.9 0.00 0.6820000 41.1
2021-02-23 13:40:00 52.9 24.6 17.6 52.9 52.9 10.3 11.7 7.1 250.0 260.5 0.00 0.6760000 41.2
2021-02-23 13:45:00 52.8 24.4 17.3 52.8 52.8 7.6 10.8 7.7 248.3 255.2 0.00 0.6690000 41.3
2021-02-23 13:50:00 52.4 26.1 18.6 52.4 52.4 9.2 12.4 9.4 244.5 255.6 0.00 0.6620000 41.5
2021-02-23 13:55:00 52.4 26.0 18.6 52.4 52.4 7.6 9.6 6.6 286.4 286.6 0.00 0.6550000 41.6
2021-02-23 14:00:00 53.1 26.0 19.1 53.1 53.1 8.1 9.7 7.3 292.7 298.1 0.00 0.6470000 41.7
2021-02-23 14:05:00 53.5 25.9 19.3 53.5 53.5 5.3 9.7 6.3 244.7 287.7 0.00 0.6400000 41.8
2021-02-23 14:10:00 53.5 25.7 19.1 53.5 53.5 10.5 11.3 7.7 286.5 273.4 0.00 0.6310000 41.9
2021-02-23 14:15:00 53.3 24.8 18.1 53.3 53.3 7.8 13.1 9.7 311.5 303.3 0.00 0.6220000 42.0
2021-02-23 14:20:00 53.5 25.1 18.6 53.5 53.5 7.1 12.4 8.1 343.6 309.8 0.00 0.6130000 42.2
2021-02-23 14:25:00 53.7 25.2 18.8 53.7 53.7 5.8 13.3 7.4 334.7 313.4 0.00 0.6040000 42.3
2021-02-23 14:30:00 54.0 24.2 18.2 54.0 54.0 10.3 11.2 6.6 316.5 311.3 0.00 0.5960000 42.4
2021-02-23 14:35:00 54.2 24.6 18.6 54.2 54.2 7.4 14.6 9.1 295.6 311.6 0.00 0.5860000 42.4
2021-02-23 14:40:00 54.3 24.1 18.3 54.3 54.3 11.0 15.8 8.6 312.6 315.5 0.00 0.5740000 42.5
2021-02-23 14:45:00 53.6 24.9 18.5 53.6 53.6 11.3 13.0 9.7 319.5 308.1 0.00 0.5640000 42.6
2021-02-23 14:50:00 54.0 23.2 17.2 54.0 54.0 11.0 12.2 9.7 302.3 307.2 0.00 0.5460000 42.6
2021-02-23 14:55:00 54.1 23.9 17.9 54.1 54.1 7.8 10.6 8.4 318.4 311.9 0.00 0.5410000 42.7
2021-02-23 15:00:00 53.7 23.5 17.3 53.7 53.7 7.8 14.4 9.7 319.1 305.8 0.00 0.5280000 42.7
2021-02-23 15:05:00 54.0 23.5 17.6 54.0 54.0 7.8 14.0 9.7 3.3 316.5 0.00 0.5170000 42.8
2021-02-23 15:10:00 54.3 22.2 16.4 54.3 54.3 11.3 15.6 10.2 325.1 306.2 0.00 0.5070000 42.8
2021-02-23 15:15:00 54.7 22.7 17.3 54.7 54.7 11.2 14.4 9.7 305.5 296.2 0.00 0.4940000 42.9
2021-02-23 15:20:00 53.9 23.4 17.3 53.9 53.9 8.8 15.8 10.7 281.1 287.4 0.00 0.4820000 42.9
2021-02-23 15:25:00 54.0 23.3 17.2 54.0 54.0 9.2 14.7 10.1 310.4 297.3 0.00 0.4670000 42.9
2021-02-23 15:30:00 53.8 22.6 16.4 53.8 53.8 10.3 14.2 10.7 288.1 300.1 0.00 0.4530000 42.9
2021-02-23 15:35:00 53.9 22.9 16.8 53.9 53.9 10.5 13.0 10.5 282.8 292.0 0.00 0.4420000 43.0
2021-02-23 15:40:00 53.9 23.5 17.4 53.9 53.9 11.2 15.1 10.9 299.7 287.7 0.00 0.4270000 43.0
2021-02-23 15:45:00 54.0 23.9 17.8 54.0 54.0 6.9 13.0 8.9 292.3 284.8 0.00 0.4140000 43.0
2021-02-23 15:50:00 54.2 23.9 18.0 54.2 54.2 8.1 12.2 9.2 308.9 295.0 0.00 0.3970000 43.0
2021-02-23 15:55:00 54.0 23.8 17.8 54.0 54.0 11.7 12.2 10.1 290.8 298.8 0.00 0.3870000 43.0
2021-02-23 16:00:00 54.2 23.7 17.9 54.2 54.2 10.1 15.8 10.4 309.0 298.2 0.00 0.3700000 43.0
2021-02-23 16:05:00 53.7 23.9 17.6 53.7 53.7 8.1 16.4 10.9 319.7 291.7 0.00 0.3380000 43.0
2021-02-23 16:10:00 53.4 23.1 16.6 53.4 53.4 13.0 16.9 12.3 295.7 294.5 0.00 0.3480000 43.0
2021-02-23 16:15:00 53.5 22.6 16.2 53.5 53.5 12.6 16.0 12.5 306.7 306.9 0.00 0.3280000 43.0
2021-02-23 16:20:00 53.8 22.7 16.5 53.8 53.8 9.2 13.1 10.0 312.0 304.4 0.00 0.3090000 43.0
2021-02-23 16:25:00 53.5 23.0 16.6 53.5 53.5 12.1 14.7 11.8 297.7 307.9 0.00 0.2890000 43.0
2021-02-23 16:30:00 53.3 23.4 16.8 53.3 53.3 8.8 15.6 11.0 298.2 298.6 0.00 0.2780000 43.0
2021-02-23 16:35:00 53.6 22.6 16.2 53.6 53.6 9.7 13.9 9.4 315.0 300.1 0.00 0.2410000 43.0
2021-02-23 16:40:00 53.5 22.8 16.4 53.5 53.5 7.6 15.8 9.5 313.5 295.2 0.00 0.2440000 43.0
2021-02-23 16:45:00 53.1 23.0 16.2 53.1 53.1 11.3 13.0 10.8 308.1 298.8 0.00 0.2310000 43.0
2021-02-23 16:50:00 52.8 23.0 15.9 52.8 52.8 10.6 14.4 10.6 314.4 304.8 0.00 0.2150000 42.9
2021-02-23 16:55:00 52.8 23.3 16.3 52.8 52.8 12.1 14.6 9.2 310.6 294.0 0.00 0.2010000 42.9
2021-02-23 17:00:00 52.7 23.3 16.2 52.7 52.7 9.4 15.3 10.2 305.4 310.7 0.00 0.1850000 42.9
2021-02-23 17:05:00 52.3 23.9 16.5 52.3 52.3 13.5 17.1 11.4 291.9 302.2 0.00 0.1590000 42.8
2021-02-23 17:10:00 52.3 24.2 16.7 52.3 52.3 11.3 15.8 11.4 327.0 305.9 0.00 0.1560000 42.8
2021-02-23 17:15:00 52.0 24.4 16.6 52.0 52.0 9.9 14.0 9.1 291.3 301.7 0.00 0.1410000 42.8
2021-02-23 17:20:00 52.0 24.6 16.8 52.0 52.0 14.4 14.4 8.5 313.5 300.9 0.00 0.1200000 42.7
2021-02-23 17:25:00 51.7 25.2 17.2 51.7 51.7 7.8 15.3 9.8 302.4 306.2 0.00 0.0960000 42.7
2021-02-23 17:30:00 51.3 25.1 16.7 51.3 51.3 8.7 11.3 8.9 293.8 306.4 0.00 0.0800000 42.7
2021-02-23 17:35:00 51.1 25.6 17.0 51.1 51.1 8.5 10.6 8.1 316.6 300.0 0.00 0.0610000 42.6
2021-02-23 17:40:00 50.5 26.0 16.9 50.5 50.5 9.0 9.7 7.0 299.4 304.4 0.00 0.0450000 42.6
2021-02-23 17:45:00 50.3 26.4 17.0 50.3 50.3 6.9 10.5 8.0 329.3 304.8 0.00 0.0330000 42.5
2021-02-23 17:50:00 49.8 26.9 17.1 47.1 49.8 6.7 12.8 9.1 317.5 306.7 0.00 0.0170000 42.5
2021-02-23 17:55:00 49.0 27.5 16.9 45.4 49.0 8.3 9.2 6.2 277.7 306.1 0.00 0.0110000 42.4
2021-02-23 18:00:00 48.5 28.3 17.1 45.9 48.5 6.0 7.2 5.9 306.5 305.9 0.00 0.0050000 42.4
2021-02-23 18:05:00 47.7 29.5 17.4 45.3 47.7 5.3 6.5 4.7 305.1 304.6 0.00 0.0030000 42.3
2021-02-23 18:10:00 46.7 30.5 17.3 45.1 46.7 4.0 5.3 3.9 329.8 301.9 0.00 0.0030000 42.3
2021-02-23 18:15:00 46.4 30.9 17.3 44.6 46.4 4.0 6.0 4.1 324.6 310.9 0.00 0.0010000 42.2
2021-02-23 18:20:00 45.9 31.3 17.1 43.9 45.9 4.2 4.9 3.5 283.1 300.3 0.00 0.0000000 42.2
2021-02-23 18:25:00 45.5 31.7 17.1 44.5 45.5 3.1 4.2 3.2 295.8 293.4 0.00 0.0000000 42.1
2021-02-23 18:30:00 45.3 32.4 17.4 45.3 45.3 2.2 4.6 2.9 305.8 300.4 0.00 0.0000000 42.0
2021-02-23 18:35:00 44.9 32.5 17.1 44.9 44.9 2.4 3.3 2.5 295.5 302.9 0.00 0.0000000 42.0
2021-02-23 18:40:00 45.0 32.8 17.4 45.0 45.0 2.1 4.2 2.6 261.4 293.7 0.00 0.0000000 41.9
2021-02-23 18:45:00 44.4 33.2 17.2 44.4 44.4 1.9 2.8 2.0 273.2 282.3 0.00 0.0000000 41.8
2021-02-23 18:50:00 44.6 33.0 17.2 44.6 44.6 2.2 4.6 2.6 258.5 275.4 0.00 0.0000000 41.8
2021-02-23 18:55:00 43.8 33.9 17.2 43.8 43.8 1.9 3.0 2.3 253.8 276.2 0.00 0.0000000 41.7
2021-02-23 19:00:00 43.0 34.6 17.0 43.0 43.0 1.3 1.9 1.6 218.2 263.2 0.00 0.0000000 41.6
2021-02-23 19:05:00 42.4 36.1 17.4 42.4 42.4 1.0 2.1 0.8 291.6 344.1 0.00 0.0000000 41.5
2021-02-23 19:10:00 41.8 37.0 17.4 41.8 41.8 1.3 1.7 1.2 296.4 283.5 0.00 0.0000000 41.5
2021-02-23 19:15:00 42.3 36.5 17.5 42.3 42.3 2.4 3.0 1.8 333.3 329.0 0.00 0.0000000 41.4
2021-02-23 19:20:00 42.5 36.6 17.8 42.5 42.5 2.4 2.8 2.2 5.7 357.0 0.00 0.0000000 41.3
2021-02-23 19:25:00 41.7 38.1 18.0 41.7 41.7 2.4 2.8 2.2 57.3 30.9 0.00 0.0000000 41.2
2021-02-23 19:30:00 41.1 39.1 18.1 41.1 41.1 2.1 2.8 2.1 336.5 28.6 0.00 0.0000000 41.1
2021-02-23 19:35:00 41.1 39.1 18.0 41.1 41.1 2.6 3.1 2.5 85.7 19.4 0.00 0.0000000 41.1
2021-02-23 19:40:00 41.6 38.9 18.4 41.6 41.6 1.7 4.0 2.6 328.2 2.8 0.00 0.0000000 41.0
2021-02-23 19:45:00 41.6 39.1 18.5 41.6 41.6 1.9 3.1 2.5 35.8 22.0 0.00 0.0000000 40.9
2021-02-23 19:50:00 41.5 39.7 18.8 41.5 41.5 2.8 3.8 2.5 43.7 17.4 0.00 0.0000000 40.9
2021-02-23 19:55:00 41.0 40.8 19.0 41.0 41.0 1.9 3.7 2.4 48.3 35.8 0.00 0.0000000 40.8
2021-02-23 20:00:00 40.8 41.2 19.0 40.8 40.8 2.4 3.0 2.2 4.9 12.8 0.00 0.0000000 40.7
2021-02-23 20:05:00 40.9 40.8 18.9 40.9 40.9 2.6 3.5 2.7 14.5 9.1 0.00 0.0000000 40.6
2021-02-23 20:10:00 40.6 41.2 18.8 38.9 40.6 3.1 3.5 2.8 57.8 38.0 0.00 0.0000000 40.6
2021-02-23 20:15:00 40.3 41.5 18.8 40.3 40.3 2.1 3.3 2.6 51.6 37.3 0.00 0.0000000 40.5
2021-02-23 20:20:00 40.0 42.3 18.9 38.0 40.0 3.3 3.3 2.2 346.1 39.1 0.00 0.0000000 40.4
2021-02-23 20:25:00 41.1 41.0 19.1 41.1 41.1 2.2 3.5 2.6 14.6 7.9 0.00 0.0000000 40.4
2021-02-23 20:30:00 41.0 41.5 19.3 41.0 41.0 2.6 4.9 2.8 29.6 5.8 0.00 0.0000000 40.3
2021-02-23 20:35:00 41.0 41.1 19.1 41.0 41.0 3.0 3.7 2.7 0.1 358.3 0.00 0.0000000 40.3
2021-02-23 20:40:00 41.3 40.7 19.2 41.3 41.3 2.6 4.4 3.0 50.9 355.0 0.00 0.0000000 40.2
2021-02-23 20:45:00 40.8 41.5 19.2 40.8 40.8 2.4 3.3 2.4 1.1 5.5 0.00 0.0000000 40.2
2021-02-23 20:50:00 39.8 43.8 19.5 37.8 39.8 3.3 3.3 2.6 24.5 22.3 0.00 0.0000000 40.1
2021-02-23 20:55:00 38.9 45.3 19.5 38.9 38.9 2.6 3.8 2.7 22.4 22.4 0.00 0.0000000 40.0
2021-02-23 21:00:00 39.4 44.4 19.5 39.4 39.4 2.2 4.4 2.4 1.9 9.3 0.00 0.0000000 40.0
2021-02-23 21:05:00 38.8 45.2 19.3 38.8 38.8 1.3 2.4 1.8 341.7 5.7 0.00 0.0000000 39.9
2021-02-23 21:10:00 38.8 44.3 18.9 36.0 38.8 3.8 4.0 2.5 296.9 349.6 0.00 0.0000000 39.9
2021-02-23 21:15:00 39.7 42.0 18.5 37.9 39.7 3.1 4.7 3.5 302.2 328.6 0.00 0.0000000 39.8
2021-02-23 21:20:00 40.4 41.9 19.0 40.4 40.4 2.8 6.3 3.7 297.6 326.0 0.00 0.0000000 39.7
2021-02-23 21:25:00 40.9 39.3 18.0 40.9 40.9 2.6 7.2 4.1 333.4 319.9 0.00 0.0000000 39.7
2021-02-23 21:30:00 40.5 40.6 18.4 37.5 40.5 4.4 4.4 2.6 289.9 328.7 0.00 0.0000000 39.6
2021-02-23 21:35:00 40.5 40.2 18.2 38.2 40.5 3.7 5.5 3.7 331.6 309.8 0.00 0.0000000 39.6
2021-02-23 21:40:00 40.6 39.4 17.8 38.0 40.6 4.0 5.5 4.3 292.5 312.2 0.00 0.0000000 39.5
2021-02-23 21:45:00 41.0 38.5 17.6 41.0 41.0 2.4 6.7 4.1 312.5 309.4 0.00 0.0000000 39.5
2021-02-23 21:50:00 40.7 38.9 17.6 37.8 40.7 4.4 4.9 3.6 286.8 306.0 0.00 0.0000000 39.4
2021-02-23 21:55:00 40.2 40.3 18.0 40.2 40.2 3.0 5.5 3.8 284.5 301.2 0.00 0.0000000 39.4
2021-02-23 22:00:00 38.8 42.8 18.1 38.8 38.8 2.1 3.1 2.2 205.7 274.0 0.00 0.0000000 39.3
2021-02-23 22:05:00 36.1 46.7 17.6 36.1 36.1 2.6 3.8 3.2 211.7 183.0 0.00 0.0000000 39.3
2021-02-23 22:10:00 37.0 44.5 17.3 37.0 37.0 2.4 3.3 2.5 192.3 190.7 0.00 0.0000000 39.2
2021-02-23 22:15:00 36.8 44.8 17.3 36.8 36.8 1.9 2.4 1.8 166.2 195.6 0.00 0.0000000 39.2
2021-02-23 22:20:00 36.8 44.4 17.1 36.8 36.8 1.9 2.2 1.9 157.7 172.3 0.00 0.0000000 39.1
2021-02-23 22:25:00 35.1 46.9 16.9 35.1 35.1 2.8 3.0 2.5 121.3 132.9 0.00 0.0000000 39.1
2021-02-23 22:30:00 34.5 47.6 16.6 34.5 34.5 2.1 2.8 2.4 151.4 126.6 0.00 0.0000000 39.0
2021-02-23 22:35:00 34.6 46.7 16.2 34.6 34.6 2.1 2.2 1.8 148.6 142.2 0.00 0.0000000 39.0
2021-02-23 22:40:00 34.5 47.0 16.3 34.5 34.5 1.7 2.1 1.8 149.5 159.0 0.00 0.0000000 38.9
2021-02-23 22:45:00 34.4 47.2 16.3 34.4 34.4 1.5 1.9 1.6 185.6 173.1 0.00 0.0000000 38.8
2021-02-23 22:50:00 33.7 48.5 16.3 33.7 33.7 1.5 1.9 1.6 157.3 186.5 0.00 0.0000000 38.8
2021-02-23 22:55:00 33.1 50.9 16.9 33.1 33.1 2.1 2.2 1.8 142.6 139.5 0.00 0.0000000 38.7
2021-02-23 23:00:00 33.3 48.0 15.7 33.3 33.3 0.8 2.2 1.4 232.0 187.4 0.00 0.0000000 38.7
2021-02-23 23:05:00 33.9 46.1 15.3 33.9 33.9 1.7 1.7 1.2 169.2 186.3 0.00 0.0000000 38.6
2021-02-23 23:10:00 33.9 44.5 14.5 33.9 33.9 1.5 1.9 1.3 224.9 201.1 0.00 0.0000000 38.6
2021-02-23 23:15:00 31.7 50.9 15.6 28.8 31.7 3.1 4.2 2.8 182.9 177.8 0.00 0.0000000 38.5
2021-02-23 23:20:00 31.2 51.1 15.2 28.3 31.2 3.1 3.7 3.1 144.6 155.4 0.00 0.0000000 38.4
2021-02-23 23:25:00 30.6 53.8 15.8 27.2 30.6 3.3 3.8 3.4 118.8 129.0 0.00 0.0000000 38.4
2021-02-23 23:30:00 30.8 53.1 15.7 27.7 30.8 3.1 3.5 3.3 123.0 131.5 0.00 0.0000000 38.3
2021-02-23 23:35:00 29.9 54.8 15.6 26.0 29.9 3.7 3.7 3.5 153.6 138.7 0.00 0.0000000 38.3
2021-02-23 23:40:00 29.0 56.6 15.5 25.5 29.0 3.3 3.8 3.4 124.3 145.3 0.00 0.0000000 38.2
2021-02-23 23:45:00 29.5 55.4 15.5 29.5 29.5 3.0 3.7 3.2 176.3 150.9 0.00 0.0000000 38.1
2021-02-23 23:50:00 30.4 53.4 15.5 30.4 30.4 3.0 3.8 3.0 206.8 173.5 0.00 0.0000000 38.1
2021-02-23 23:55:00 30.5 53.2 15.4 27.4 30.5 3.1 3.5 2.8 161.1 167.9 0.00 0.0000000 38.0
2021-02-24 00:00:00 30.0 54.7 15.7 26.2 30.0 3.7 4.0 3.7 167.1 169.0 0.00 0.0000000 38.0

Data is courtesy of the NM Climate Center. DO NOT USE IN LEGAL PROCEEDINGS.